Terminal Aerodrome Forecast
Issued by NWS

Home | Current Version | Previous Version | Text Only | Print | Product List | Glossary Off
Versions: 1 2 3 4 5 6 7 8 9 10 11 12 13 14 15 16 17 18 19 20 21 22 23

117
FTUS43 KLOT 220900 AAA
TAFDPA
TAF AMD
KDPA 220900Z 2209/2306 32008KT P6SM SKC
     FM221500 27006KT P6SM SKC
     FM222200 22007KT P6SM OVC150
     FM230300 20009KT P6SM OVC060=

USA.gov is the U.S. government's official web portal to all federal, state and local government web resources and services.